Time;durP1;ratioP1;P1;durP2;ratioP2;P2;SDS_P1;SDS_P2;PMS_P1;PMS_P2;Temp;Humidity;BMP_temperature;BMP_pressure;BME280_temperature;BME280_humidity;BME280_pressure;Samples;Min_cycle;Max_cycle;Signal;HPM_P1;HPM_P2
2022/01/23 00:01:50;;;;;;;;;11.33;9.33;;;;;21.16;45.49;101989.19;113131;1242;21157;-69
2022/01/23 00:04:17;;;;;;;;;10.00;9.33;;;;;21.16;45.59;101989.41;112989;1242;20032;-69
2022/01/23 00:06:45;;;;;;;;;6.00;6.00;;;;;21.17;45.48;101986.05;113013;1242;20919;-69
2022/01/23 00:09:11;;;;;;;;;6.00;6.00;;;;;21.16;45.32;101988.53;113084;1242;20261;-69
2022/01/23 00:11:43;;;;;;;;;9.00;8.00;;;;;21.16;45.61;101994.80;113001;1242;19281;-69
2022/01/23 00:19:52;;;;;;;;;8.00;8.00;;;;;21.16;45.61;102003.90;112193;1248;21940;-70
2022/01/23 00:22:19;;;;;;;;;9.00;8.00;;;;;21.16;45.40;102014.10;112222;1248;19414;-70
2022/01/23 00:30:25;;;;;;;;;9.67;8.00;;;;;21.16;45.34;102012.27;112202;1248;20002;-69
2022/01/23 00:32:50;;;;;;;;;9.00;8.00;;;;;21.16;45.31;102016.80;112183;1248;22707;-69
2022/01/23 00:35:16;;;;;;;;;10.00;9.00;;;;;21.17;45.53;102017.45;112237;1248;22134;-69
2022/01/23 00:37:42;;;;;;;;;8.50;7.00;;;;;21.17;45.24;102014.58;112233;1248;19247;-69
2022/01/23 00:40:08;;;;;;;;;9.00;8.00;;;;;21.15;45.49;102017.80;112216;1248;20503;-69
2022/01/23 00:42:35;;;;;;;;;9.00;6.00;;;;;21.15;45.37;102023.46;112237;1247;20660;-69
2022/01/23 00:45:14;;;;;;;;;9.00;8.00;;;;;21.16;45.12;102021.05;112199;1248;19429;-73
2022/01/23 00:47:40;;;;;;;;;9.67;9.00;;;;;21.16;45.34;102019.78;112235;1248;23514;-69
2022/01/23 00:50:06;;;;;;;;;8.00;8.00;;;;;21.16;45.30;102014.50;112296;1243;21733;-69
2022/01/23 00:52:32;;;;;;;;;8.00;6.00;;;;;21.15;45.14;102007.51;113044;1242;21647;-69
2022/01/23 00:55:00;;;;;;;;;8.00;8.00;;;;;21.15;45.02;102003.17;113051;1241;19974;-70
2022/01/23 00:57:26;;;;;;;;;8.67;8.67;;;;;21.15;45.21;102002.73;113448;1241;20489;-70
2022/01/23 00:59:52;;;;;;;;;6.00;6.00;;;;;21.13;45.21;101997.98;113381;1241;19749;-69
2022/01/23 01:02:17;;;;;;;;;8.00;8.00;;;;;21.14;45.09;101994.71;113080;1241;20182;-69
2022/01/23 01:04:43;;;;;;;;;8.00;8.00;;;;;21.14;45.01;101997.55;113076;1241;18968;-69
2022/01/23 01:07:09;;;;;;;;;9.50;9.00;;;;;21.13;45.10;101992.94;113097;1242;19757;-69
2022/01/23 01:09:35;;;;;;;;;11.00;9.00;;;;;21.14;45.07;101997.21;113097;1242;20015;-69
2022/01/23 01:12:04;;;;;;;;;9.00;8.00;;;;;21.13;44.90;101999.45;113014;1242;19155;-69
2022/01/23 01:14:54;;;;;;;;;10.00;8.67;;;;;21.14;45.06;102008.52;113077;1241;21667;-69
2022/01/23 01:17:27;;;;;;;;;9.00;8.33;;;;;21.13;45.05;102008.20;113063;1242;22581;-69
2022/01/23 01:30:58;;;;;;;;;10.00;9.00;;;;;21.13;44.82;102011.52;113056;1242;23379;-68
2022/01/23 01:33:34;;;;;;;;;8.33;8.00;;;;;21.13;44.88;102005.14;113114;1241;22768;-69
2022/01/23 01:36:04;;;;;;;;;9.67;9.00;;;;;21.12;44.61;102006.46;113110;1242;19207;-69
2022/01/23 01:38:31;;;;;;;;;9.00;7.67;;;;;21.12;44.81;102009.56;113065;1242;20753;-69
2022/01/23 01:41:09;;;;;;;;;6.00;6.00;;;;;21.12;44.85;102010.28;112922;1240;61538;-76
2022/01/23 01:43:35;;;;;;;;;9.00;8.00;;;;;21.10;44.68;102008.38;112146;1242;19619;-76
2022/01/23 01:46:01;;;;;;;;;6.67;6.67;;;;;21.13;44.76;102013.48;112365;1242;19406;-76
2022/01/23 01:48:27;;;;;;;;;6.00;6.00;;;;;21.14;44.78;102012.51;112342;1243;20027;-77
2022/01/23 01:50:55;;;;;;;;;8.67;8.00;;;;;21.13;44.55;102013.28;112266;1242;19049;-77
2022/01/23 01:53:21;;;;;;;;;8.00;6.67;;;;;21.13;44.80;102017.69;112372;1242;19373;-77
2022/01/23 01:55:50;;;;;;;;;9.50;9.00;;;;;21.13;44.54;102013.73;112287;1242;21985;-77
2022/01/23 02:01:00;;;;;;;;;8.33;6.67;;;;;21.12;44.68;102007.04;112334;1243;23607;-77
2022/01/23 02:08:19;;;;;;;;;9.33;8.67;;;;;21.12;44.49;102004.34;112346;1242;20395;-77
2022/01/23 02:09:12;;;;;;;;;9.33;9.00;;;;;21.12;44.60;102001.10;112347;1242;19357;-78
2022/01/23 02:12:09;;;;;;;;;9.00;8.00;;;;;21.11;44.57;102002.59;112346;1242;20234;-77
2022/01/23 02:14:44;;;;;;;;;9.33;9.00;;;;;21.11;44.67;102006.95;112382;1242;19193;-77
2022/01/23 02:17:22;;;;;;;;;10.00;8.67;;;;;21.11;44.64;102006.06;112351;1242;23020;-78
2022/01/23 02:22:51;;;;;;;;;8.33;8.00;;;;;21.10;44.76;102007.20;112332;1242;22584;-77
2022/01/23 02:50:30;;;;;;;;;8.67;8.00;;;;;21.11;44.62;102005.18;112296;1242;21688;-76
2022/01/23 02:53:17;;;;;;;;;8.00;8.00;;;;;21.10;44.51;102020.52;111661;1247;20172;-77
2022/01/23 02:55:45;;;;;;;;;10.50;9.00;;;;;21.09;44.23;102020.38;111607;1247;19208;-77
2022/01/23 02:58:15;;;;;;;;;8.00;8.00;;;;;21.09;44.44;102016.02;111665;1247;19419;-76
2022/01/23 03:00:49;;;;;;;;;10.00;8.50;;;;;21.10;44.56;102018.70;111626;1247;20183;-77
2022/01/23 03:03:22;;;;;;;;;8.00;8.00;;;;;21.09;44.36;102022.08;111678;1248;19608;-77
2022/01/23 03:06:08;;;;;;;;;8.00;8.00;;;;;21.09;44.36;102022.18;111644;1248;23227;-76
2022/01/23 03:08:58;;;;;;;;;8.33;6.67;;;;;21.09;44.40;102018.95;111687;1247;23553;-78
2022/01/23 03:11:45;;;;;;;;;9.33;8.00;;;;;21.08;44.40;102012.25;111556;1248;20703;-77
2022/01/23 03:14:18;;;;;;;;;8.00;8.00;;;;;21.08;44.37;102017.38;111675;1248;20855;-76
2022/01/23 03:25:24;;;;;;;;;10.00;8.67;;;;;21.08;44.36;102036.28;111187;1252;20499;-77
2022/01/23 03:28:16;;;;;;;;;8.67;8.00;;;;;21.07;44.16;102036.20;111437;1248;23596;-76
2022/01/23 03:30:52;;;;;;;;;6.00;6.00;;;;;21.07;44.21;102044.59;111651;1248;20724;-76
2022/01/23 03:33:18;;;;;;;;;10.00;9.00;;;;;21.07;44.18;102050.73;111697;1248;20209;-77
2022/01/23 03:35:45;;;;;;;;;12.67;9.00;;;;;21.06;44.10;102048.30;111673;1248;19258;-75
2022/01/23 03:38:10;;;;;;;;;8.33;8.00;;;;;21.06;44.19;102050.34;111662;1248;19433;-77
2022/01/23 03:40:37;;;;;;;;;8.00;8.00;;;;;21.05;44.23;102050.35;111655;1248;20118;-76
2022/01/23 03:43:09;;;;;;;;;8.67;8.67;;;;;21.05;44.39;102052.92;111691;1248;19074;-77
2022/01/23 03:45:56;;;;;;;;;8.00;8.00;;;;;21.05;44.27;102057.48;111699;1248;19496;-76
2022/01/23 03:51:07;;;;;;;;;8.00;8.00;;;;;21.06;44.36;102078.31;111650;1248;19228;-76
2022/01/23 03:53:33;;;;;;;;;8.00;8.00;;;;;21.06;44.36;102077.43;111838;1242;19571;-76
2022/01/23 03:55:59;;;;;;;;;8.33;7.33;;;;;21.05;44.20;102077.25;112341;1242;20175;-76
2022/01/23 03:58:26;;;;;;;;;9.00;8.00;;;;;21.05;44.14;102079.66;112342;1242;19252;-76
2022/01/23 04:00:51;;;;;;;;;10.00;9.00;;;;;21.06;44.34;102082.85;112313;1242;19724;-76
2022/01/23 04:03:19;;;;;;;;;9.50;9.00;;;;;21.05;44.13;102078.89;112339;1242;20311;-76
2022/01/23 04:05:45;;;;;;;;;9.00;9.00;;;;;21.05;44.04;102082.19;112369;1242;19582;-76
2022/01/23 04:08:11;;;;;;;;;7.33;7.33;;;;;21.05;44.29;102076.79;112389;1242;19387;-76
2022/01/23 04:10:38;;;;;;;;;8.00;6.00;;;;;21.05;44.08;102074.21;112357;1242;24400;-78
2022/01/23 04:13:14;;;;;;;;;12.00;10.00;;;;;21.05;44.10;102079.86;112371;1242;22882;-77
2022/01/23 04:15:45;;;;;;;;;8.00;8.00;;;;;21.05;44.12;102078.05;112329;1242;23940;-77
2022/01/23 04:21:16;;;;;;;;;9.00;8.00;;;;;21.04;44.37;102079.16;112330;1242;19431;-75
2022/01/23 04:32:08;;;;;;;;;9.50;8.50;;;;;21.03;44.07;102076.38;112364;1242;19537;-76
2022/01/23 04:34:49;;;;;;;;;8.50;8.00;;;;;21.04;44.32;102081.38;112290;1242;20144;-75
2022/01/23 04:45:32;;;;;;;;;7.33;7.33;;;;;21.03;44.07;102095.77;112342;1242;23461;-76
2022/01/23 05:02:04;;;;;;;;;8.00;6.00;;;;;21.03;44.13;102118.02;112371;1242;21232;-77
2022/01/23 05:04:32;;;;;;;;;10.00;8.33;;;;;21.03;44.20;102117.30;112389;1242;19432;-77
2022/01/23 05:07:00;;;;;;;;;9.00;8.00;;;;;21.03;44.13;102122.89;112329;1242;23148;-76
2022/01/23 05:09:27;;;;;;;;;10.00;9.00;;;;;21.02;44.20;102130.45;112392;1242;19889;-77
2022/01/23 05:11:53;;;;;;;;;9.00;8.00;;;;;21.02;44.14;102134.06;112282;1242;19611;-77
2022/01/23 05:14:26;;;;;;;;;9.33;9.00;;;;;21.03;44.15;102137.07;112366;1242;20385;-77
2022/01/23 05:16:52;;;;;;;;;9.00;6.67;;;;;21.03;44.45;102136.89;112359;1242;19406;-76
2022/01/23 05:19:19;;;;;;;;;9.00;8.00;;;;;21.03;44.40;102135.88;112370;1242;19482;-77
2022/01/23 05:24:35;;;;;;;;;6.67;6.67;;;;;21.01;44.17;102136.19;112331;1242;19363;-76
2022/01/23 05:27:01;;;;;;;;;8.00;6.67;;;;;21.00;44.34;102136.63;112381;1242;19536;-78
2022/01/23 05:29:27;;;;;;;;;8.00;7.00;;;;;21.01;44.33;102135.67;112379;1242;19931;-76
2022/01/23 05:31:53;;;;;;;;;8.67;8.00;;;;;21.01;44.21;102140.21;112335;1242;19279;-76
2022/01/23 05:34:21;;;;;;;;;10.00;8.00;;;;;21.01;44.21;102142.91;112296;1242;19335;-73
2022/01/23 05:36:48;;;;;;;;;9.67;8.67;;;;;21.03;44.19;102148.58;112348;1242;22555;-75
2022/01/23 05:39:16;;;;;;;;;6.00;6.00;;;;;21.02;44.27;102149.77;112336;1242;19153;-77
2022/01/23 05:41:43;;;;;;;;;9.67;8.33;;;;;21.02;44.30;102148.98;112407;1242;19321;-77
2022/01/23 05:44:10;;;;;;;;;8.00;8.00;;;;;21.03;44.53;102155.67;112337;1242;20636;-77
2022/01/23 05:46:36;;;;;;;;;8.00;8.00;;;;;21.03;44.38;102156.02;112114;1243;23020;-77
2022/01/23 05:49:02;;;;;;;;;9.00;8.00;;;;;21.03;44.38;102158.94;112330;1242;19412;-77
2022/01/23 05:51:28;;;;;;;;;9.00;8.00;;;;;21.02;44.04;102161.73;112348;1242;20120;-77
2022/01/23 05:53:55;;;;;;;;;8.00;6.00;;;;;21.02;44.06;102158.66;112354;1242;22945;-77
2022/01/23 05:56:21;;;;;;;;;8.33;8.33;;;;;21.02;44.11;102161.90;112228;1242;23732;-77
2022/01/23 05:58:47;;;;;;;;;8.00;8.00;;;;;21.02;44.34;102163.98;112358;1242;20385;-78
2022/01/23 06:01:13;;;;;;;;;9.00;6.00;;;;;21.03;44.30;102172.57;112333;1242;19200;-77
2022/01/23 06:03:39;;;;;;;;;6.00;6.00;;;;;21.02;44.13;102173.70;112364;1242;21976;-77
2022/01/23 06:06:06;;;;;;;;;8.00;6.00;;;;;21.03;44.23;102179.95;112360;1242;20223;-77
2022/01/23 06:08:32;;;;;;;;;8.00;8.00;;;;;21.03;44.35;102182.94;112385;1242;19002;-77
2022/01/23 06:10:58;;;;;;;;;8.67;8.00;;;;;21.03;44.16;102180.92;112356;1243;23673;-76
2022/01/23 06:13:24;;;;;;;;;8.67;8.33;;;;;21.02;44.24;102179.41;112359;1242;20325;-76
2022/01/23 06:15:50;;;;;;;;;8.00;8.00;;;;;21.02;44.30;102175.55;112349;1242;19675;-77
2022/01/23 06:18:16;;;;;;;;;8.00;8.00;;;;;21.01;44.20;102174.55;112373;1242;19299;-77
2022/01/23 06:20:42;;;;;;;;;8.50;6.00;;;;;21.01;44.04;102175.67;112198;1242;20103;-75
2022/01/23 06:23:08;;;;;;;;;8.67;8.00;;;;;21.01;44.31;102172.23;112337;1242;19692;-76
2022/01/23 06:25:37;;;;;;;;;6.00;6.00;;;;;21.01;44.30;102169.86;112279;1242;19486;-76
2022/01/23 06:28:04;;;;;;;;;8.50;8.00;;;;;21.01;44.10;102174.02;112190;1242;22796;-77
2022/01/23 06:30:30;;;;;;;;;8.00;8.00;;;;;21.00;44.28;102177.34;112325;1242;19271;-77
2022/01/23 06:32:56;;;;;;;;;8.00;7.33;;;;;21.00;44.43;102177.32;112286;1242;19396;-76
2022/01/23 06:35:24;;;;;;;;;8.00;6.00;;;;;20.98;44.69;102178.59;112326;1242;20162;-76
2022/01/23 06:37:50;;;;;;;;;8.67;7.33;;;;;21.00;44.51;102181.77;112290;1242;19255;-76
2022/01/23 06:40:16;;;;;;;;;8.00;6.00;;;;;21.01;44.60;102172.52;112305;1242;19393;-75
2022/01/23 06:42:43;;;;;;;;;13.00;10.00;;;;;21.02;44.70;102178.63;112299;1242;20167;-76
2022/01/23 06:45:09;;;;;;;;;8.50;8.50;;;;;21.04;44.56;102180.63;112321;1242;19175;-76
2022/01/23 06:47:35;;;;;;;;;6.00;6.00;;;;;21.04;44.56;102183.36;112356;1242;19412;-75
2022/01/23 06:50:01;;;;;;;;;9.00;8.00;;;;;21.08;44.58;102186.23;112438;1242;20294;-75
2022/01/23 06:52:27;;;;;;;;;8.00;6.00;;;;;21.14;44.82;102181.15;112337;1243;19397;-76
2022/01/23 06:54:53;;;;;;;;;11.50;8.50;;;;;21.18;44.75;102179.37;112339;1242;19372;-76
2022/01/23 06:57:19;;;;;;;;;9.00;8.00;;;;;21.18;44.74;102180.41;112352;1242;20320;-77
2022/01/23 06:59:45;;;;;;;;;6.00;6.00;;;;;21.17;44.40;102177.27;112357;1242;23186;-75
2022/01/23 07:02:11;;;;;;;;;10.00;9.67;;;;;21.16;44.89;102179.47;112229;1242;23541;-77
2022/01/23 07:04:37;;;;;;;;;6.67;6.00;;;;;21.17;45.16;102178.67;112303;1242;20265;-75
2022/01/23 07:07:04;;;;;;;;;6.00;6.00;;;;;21.21;45.42;102183.75;112205;1242;23396;-75
2022/01/23 07:09:29;;;;;;;;;8.33;8.00;;;;;21.25;45.50;102180.83;112342;1242;19914;-75
2022/01/23 07:11:55;;;;;;;;;13.00;8.50;;;;;21.29;45.64;102185.73;112375;1243;20255;-76
2022/01/23 07:14:22;;;;;;;;;8.67;8.00;;;;;21.28;45.76;102183.24;112345;1242;19172;-75
2022/01/23 07:16:48;;;;;;;;;10.67;9.00;;;;;21.30;46.15;102192.00;112365;1242;19405;-74
2022/01/23 07:19:15;;;;;;;;;9.00;9.00;;;;;21.28;46.31;102194.36;112313;1242;22840;-76
2022/01/23 07:21:41;;;;;;;;;10.00;9.00;;;;;21.31;46.52;102202.28;112332;1243;19252;-76
2022/01/23 07:24:08;;;;;;;;;10.00;9.50;;;;;21.31;46.20;102208.81;112373;1242;19451;-77
2022/01/23 07:26:35;;;;;;;;;9.67;8.00;;;;;21.32;46.47;102220.15;112382;1242;20405;-76
2022/01/23 07:29:03;;;;;;;;;10.00;9.00;;;;;21.30;46.37;102225.65;112368;1242;19062;-75
2022/01/23 07:31:57;;;;;;;;;9.00;9.00;;;;;21.33;46.79;102234.61;112351;1242;19351;-74
2022/01/23 07:34:24;;;;;;;;;10.00;10.00;;;;;21.36;46.61;102241.63;112364;1242;23532;-77
2022/01/23 07:36:51;;;;;;;;;10.00;9.00;;;;;21.40;46.74;102252.36;112337;1242;19229;-77
2022/01/23 07:39:17;;;;;;;;;10.67;10.00;;;;;21.44;46.54;102256.71;112386;1242;19713;-76
2022/01/23 07:41:45;;;;;;;;;9.00;9.00;;;;;21.43;46.44;102262.41;112080;1242;20306;-75
2022/01/23 07:44:12;;;;;;;;;10.67;9.00;;;;;21.41;46.63;102260.81;112373;1243;20018;-76
2022/01/23 07:46:38;;;;;;;;;9.00;8.00;;;;;21.43;46.96;102262.30;112335;1242;19442;-78
2022/01/23 07:49:04;;;;;;;;;10.00;8.50;;;;;21.44;48.52;102253.25;112385;1242;20132;-76
2022/01/23 07:51:30;;;;;;;;;11.33;9.00;;;;;21.45;48.92;102261.38;112323;1242;20078;-78
2022/01/23 07:53:56;;;;;;;;;9.00;9.00;;;;;21.46;49.29;102259.09;112348;1242;19159;-78
2022/01/23 07:56:22;;;;;;;;;9.00;8.67;;;;;21.45;49.30;102258.23;112366;1242;23082;-77
2022/01/23 07:58:48;;;;;;;;;10.00;10.00;;;;;21.45;48.86;102256.25;112333;1242;23132;-77
2022/01/23 08:01:14;;;;;;;;;13.50;12.00;;;;;21.44;48.85;102261.22;112358;1242;23743;-77
2022/01/23 08:03:41;;;;;;;;;12.50;11.00;;;;;21.45;48.67;102264.20;112282;1242;20104;-77
2022/01/23 08:06:07;;;;;;;;;9.67;9.33;;;;;21.46;48.78;102275.04;112342;1242;19210;-77
2022/01/23 08:08:34;;;;;;;;;10.00;10.00;;;;;21.46;48.68;102281.04;112362;1242;23808;-76
2022/01/23 08:11:00;;;;;;;;;10.00;9.00;;;;;21.48;48.71;102292.91;112100;1243;20199;-77
2022/01/23 08:13:26;;;;;;;;;9.00;9.00;;;;;21.47;48.07;102301.17;112366;1242;19091;-76
2022/01/23 08:15:52;;;;;;;;;11.00;9.50;;;;;21.47;48.33;102304.83;112368;1242;19140;-78
2022/01/23 08:18:19;;;;;;;;;12.00;10.00;;;;;21.46;48.10;102311.23;112333;1242;19992;-78
2022/01/23 08:20:46;;;;;;;;;13.00;12.00;;;;;21.47;48.32;102310.25;112274;1242;19221;-78
2022/01/23 08:23:13;;;;;;;;;10.00;9.00;;;;;21.47;48.54;102312.79;112296;1242;20147;-77
2022/01/23 08:25:39;;;;;;;;;11.67;11.67;;;;;21.45;48.29;102311.40;112342;1242;20616;-76
2022/01/23 08:28:07;;;;;;;;;13.00;9.00;;;;;21.43;48.37;102308.99;112327;1242;22671;-75
2022/01/23 08:30:33;;;;;;;;;9.67;8.67;;;;;21.43;48.47;102303.02;112316;1242;19459;-77
2022/01/23 08:32:59;;;;;;;;;10.67;9.00;;;;;21.45;48.00;102302.80;112305;1242;20701;-77
2022/01/23 08:35:27;;;;;;;;;13.00;12.00;;;;;21.46;47.72;102309.96;112074;1242;23210;-76
2022/01/23 08:37:54;;;;;;;;;11.33;11.33;;;;;21.46;48.23;102312.35;112339;1242;21017;-76
2022/01/23 08:40:23;;;;;;;;;8.67;8.67;;;;;21.45;48.44;102315.89;112337;1242;20229;-77
2022/01/23 08:42:51;;;;;;;;;11.33;10.00;;;;;21.45;48.36;102317.91;112361;1243;19994;-78
2022/01/23 08:45:18;;;;;;;;;11.33;11.33;;;;;21.46;48.24;102319.98;112184;1243;19551;-78
2022/01/23 08:47:45;;;;;;;;;13.33;11.33;;;;;21.45;48.24;102320.07;112378;1242;22916;-75
2022/01/23 08:50:11;;;;;;;;;9.33;8.67;;;;;21.46;48.28;102325.83;112250;1242;19316;-76
2022/01/23 08:52:38;;;;;;;;;10.00;9.33;;;;;21.46;48.12;102327.62;112365;1242;20937;-77
2022/01/23 08:55:04;;;;;;;;;10.33;9.00;;;;;21.48;48.08;102326.20;112324;1242;20347;-77
2022/01/23 08:57:30;;;;;;;;;12.33;9.67;;;;;21.49;48.41;102327.91;112323;1242;21857;-78
2022/01/23 08:59:59;;;;;;;;;10.00;10.00;;;;;21.50;48.38;102325.38;112028;1244;19584;-78
2022/01/23 09:02:25;;;;;;;;;12.67;10.67;;;;;21.51;48.46;102323.31;112235;1243;20274;-77
2022/01/23 09:04:53;;;;;;;;;12.67;9.67;;;;;21.52;48.79;102317.76;112319;1242;19316;-73
2022/01/23 09:07:19;;;;;;;;;10.67;9.67;;;;;21.57;48.56;102310.05;112251;1242;19374;-76
2022/01/23 09:09:45;;;;;;;;;12.00;12.00;;;;;21.58;48.00;102308.15;112280;1242;20154;-78
2022/01/23 09:12:28;;;;;;;;;16.67;13.00;;;;;21.56;47.79;102299.02;112176;1242;19351;-76
2022/01/23 09:14:55;;;;;;;;;13.00;10.00;;;;;21.56;47.70;102306.52;112271;1242;23349;-78
2022/01/23 09:17:21;;;;;;;;;13.33;13.00;;;;;21.56;47.75;102307.05;112243;1242;20155;-77
2022/01/23 09:19:48;;;;;;;;;11.33;9.00;;;;;21.55;47.73;102309.84;112305;1242;22357;-77
2022/01/23 09:22:14;;;;;;;;;16.67;14.00;;;;;21.54;47.32;102308.88;112290;1242;20248;-78
2022/01/23 09:24:40;;;;;;;;;75.67;53.00;;;;;21.55;47.16;102307.17;112366;1242;20279;-77
2022/01/23 09:27:13;;;;;;;;;82.67;58.67;;;;;21.54;47.71;102308.91;112333;1242;19175;-77
2022/01/23 09:29:42;;;;;;;;;51.67;40.67;;;;;21.53;47.89;102306.06;112101;1243;20286;-78
2022/01/23 09:32:09;;;;;;;;;69.33;54.00;;;;;21.51;47.22;102304.41;112336;1242;22525;-78
2022/01/23 09:34:36;;;;;;;;;63.67;46.67;;;;;21.48;48.12;102306.31;112286;1242;22011;-77
2022/01/23 09:37:03;;;;;;;;;55.33;47.00;;;;;21.47;48.04;102306.27;112414;1242;19554;-76
2022/01/23 09:39:29;;;;;;;;;48.50;39.00;;;;;21.47;48.20;102304.66;112367;1242;20253;-77
2022/01/23 09:41:55;;;;;;;;;50.00;40.00;;;;;21.46;48.27;102309.81;112386;1242;19697;-81
2022/01/23 09:44:22;;;;;;;;;53.67;41.33;;;;;21.45;48.00;102310.78;112602;1242;19451;-78
2022/01/23 09:46:48;;;;;;;;;37.50;33.00;;;;;21.42;48.39;102310.34;112227;1242;21327;-77
2022/01/23 09:49:16;;;;;;;;;38.00;35.50;;;;;21.44;48.01;102313.11;112340;1242;19433;-77
2022/01/23 09:51:42;;;;;;;;;43.67;34.33;;;;;21.45;48.32;102315.55;112350;1242;19532;-75
2022/01/23 09:54:09;;;;;;;;;40.33;32.00;;;;;21.48;48.29;102316.02;112322;1242;20567;-78
2022/01/23 09:56:36;;;;;;;;;33.00;29.00;;;;;21.51;48.24;102320.30;112386;1242;19179;-77
2022/01/23 09:59:03;;;;;;;;;35.67;28.67;;;;;21.51;48.33;102324.61;112338;1242;19492;-78
2022/01/23 10:01:29;;;;;;;;;38.67;30.00;;;;;21.54;48.20;102322.34;112354;1243;20334;-76
2022/01/23 10:03:56;;;;;;;;;29.33;28.67;;;;;21.52;48.01;102322.89;112370;1242;19378;-77
2022/01/23 10:06:22;;;;;;;;;34.67;29.33;;;;;21.51;47.27;102323.34;112302;1242;19652;-77
2022/01/23 10:08:49;;;;;;;;;30.00;25.33;;;;;21.51;47.65;102323.37;112077;1245;20164;-77
2022/01/23 10:11:16;;;;;;;;;24.33;23.67;;;;;21.50;48.27;102324.17;112331;1242;22812;-77
2022/01/23 10:13:43;;;;;;;;;27.67;25.00;;;;;21.47;47.87;102321.88;112379;1242;22957;-78
2022/01/23 10:16:09;;;;;;;;;28.50;27.50;;;;;21.51;48.07;102326.20;112361;1242;20220;-76
2022/01/23 10:18:36;;;;;;;;;28.00;23.00;;;;;21.52;47.94;102323.95;112354;1242;19285;-76
2022/01/23 10:21:02;;;;;;;;;28.00;25.00;;;;;21.53;48.20;102333.35;112338;1242;21175;-77
2022/01/23 10:23:28;;;;;;;;;26.33;23.67;;;;;21.51;48.44;102334.08;112317;1242;20224;-77
2022/01/23 10:25:55;;;;;;;;;30.00;22.00;;;;;21.48;48.17;102331.47;112371;1242;23725;-77
2022/01/23 10:28:23;;;;;;;;;29.67;25.33;;;;;21.45;48.23;102335.16;112197;1242;19589;-76
2022/01/23 10:30:49;;;;;;;;;30.67;29.33;;;;;21.48;48.02;102338.92;112344;1242;20367;-76
2022/01/23 10:33:16;;;;;;;;;28.00;24.00;;;;;21.51;48.15;102337.13;112334;1242;19192;-77
2022/01/23 10:35:44;;;;;;;;;29.50;24.00;;;;;21.52;48.21;102336.16;112389;1242;19580;-78
2022/01/23 10:38:13;;;;;;;;;29.00;24.67;;;;;21.51;48.61;102332.77;112366;1242;21729;-77
2022/01/23 10:40:48;;;;;;;;;25.50;21.00;;;;;21.50;48.45;102339.48;112340;1242;23017;-77
2022/01/23 10:48:45;;;;;;;;;24.33;21.00;;;;;21.56;48.66;102334.99;112365;1242;22941;-76
2022/01/23 10:51:11;;;;;;;;;23.00;21.67;;;;;21.59;49.28;102338.58;112385;1242;19439;-76
2022/01/23 10:53:37;;;;;;;;;26.00;22.00;;;;;21.58;49.31;102345.96;112372;1242;23452;-77
2022/01/23 10:56:04;;;;;;;;;25.67;24.33;;;;;21.61;50.98;102346.04;112309;1242;19357;-76
2022/01/23 10:58:31;;;;;;;;;20.50;20.00;;;;;21.66;51.50;102350.34;112363;1242;19413;-76
2022/01/23 11:00:58;;;;;;;;;26.33;24.33;;;;;21.67;51.68;102348.21;112294;1242;20354;-77
2022/01/23 11:03:24;;;;;;;;;27.33;23.67;;;;;21.69;53.76;102352.55;112355;1242;23298;-77
2022/01/23 11:05:50;;;;;;;;;26.67;21.00;;;;;21.70;53.88;102356.09;112375;1242;19977;-77
2022/01/23 11:08:17;;;;;;;;;28.00;21.33;;;;;21.68;53.83;102352.66;112351;1242;20325;-76
2022/01/23 11:10:43;;;;;;;;;25.50;22.00;;;;;21.66;54.10;102357.06;112347;1242;19164;-77
2022/01/23 11:18:34;;;;;;;;;23.67;23.00;;;;;21.70;53.15;102359.90;112616;1242;19283;-75
2022/01/23 11:21:01;;;;;;;;;24.00;17.33;;;;;21.73;53.05;102365.48;112445;1242;19805;-77
2022/01/23 11:23:27;;;;;;;;;24.00;21.00;;;;;21.75;52.81;102362.70;112301;1242;22814;-77
2022/01/23 11:25:53;;;;;;;;;24.67;19.33;;;;;21.77;53.20;102358.21;112282;1242;19390;-76
2022/01/23 11:28:19;;;;;;;;;25.50;23.00;;;;;21.77;53.11;102352.58;112299;1242;19290;-78
2022/01/23 11:30:45;;;;;;;;;20.33;18.67;;;;;21.75;52.81;102353.26;110850;1242;1808522;-79
2022/01/23 11:33:11;;;;;;;;;25.67;21.00;;;;;21.74;52.50;102356.85;112302;1242;19146;-76
2022/01/23 11:35:39;;;;;;;;;21.67;20.33;;;;;21.71;52.27;102362.59;112338;1242;19455;-75
2022/01/23 11:38:10;;;;;;;;;21.33;20.00;;;;;21.72;52.22;102364.65;112328;1242;22463;-75
2022/01/23 11:50:34;;;;;;;;;24.67;20.33;;;;;21.74;51.37;102367.33;112385;1242;23212;-74
2022/01/23 11:54:28;;;;;;;;;18.33;16.00;;;;;21.55;49.46;102366.94;111643;1247;23606;-76
2022/01/23 11:56:58;;;;;;;;;21.00;18.50;;;;;21.53;49.80;102370.10;111665;1248;19031;-76
2022/01/23 11:59:27;;;;;;;;;19.00;17.33;;;;;21.49;50.11;102362.44;111533;1248;23540;-77
2022/01/23 12:01:53;;;;;;;;;22.33;17.00;;;;;21.45;50.63;102365.92;111627;1247;20191;-77
2022/01/23 12:04:19;;;;;;;;;20.00;17.00;;;;;21.41;50.77;102366.11;111693;1247;19447;-78
2022/01/23 12:06:45;;;;;;;;;19.00;17.00;;;;;21.40;50.40;102369.35;111642;1248;19579;-78
2022/01/23 12:09:12;;;;;;;;;20.33;17.33;;;;;21.39;50.49;102372.46;111679;1248;20341;-77
2022/01/23 12:11:42;;;;;;;;;16.33;13.33;;;;;21.40;50.17;102372.44;111639;1248;19358;-77
2022/01/23 12:16:22;;;;;;;;;14.67;13.67;;;;;21.39;50.12;102373.36;111636;1248;19506;-77
2022/01/23 12:16:57;;;;;;;;;15.33;15.33;;;;;21.36;49.97;102376.00;111615;1248;20217;-77
2022/01/23 12:19:23;;;;;;;;;20.00;16.00;;;;;21.36;49.97;102377.30;111676;1247;19298;-77
2022/01/23 12:21:49;;;;;;;;;17.50;16.00;;;;;21.36;49.95;102380.58;111645;1248;19397;-75
2022/01/23 12:24:15;;;;;;;;;20.00;16.33;;;;;21.38;49.56;102378.21;111633;1247;20382;-76
2022/01/23 12:26:46;;;;;;;;;14.00;13.33;;;;;21.38;49.52;102381.30;111703;1248;19271;-77
2022/01/23 12:29:12;;;;;;;;;14.33;13.00;;;;;21.38;49.46;102382.40;111682;1247;20746;-78
2022/01/23 12:31:38;;;;;;;;;16.50;14.00;;;;;21.38;49.41;102379.27;111910;1242;20195;-77
2022/01/23 12:34:04;;;;;;;;;20.67;18.33;;;;;21.37;49.23;102383.08;112353;1242;19325;-78
2022/01/23 12:36:31;;;;;;;;;14.67;13.67;;;;;21.35;49.24;102391.02;112362;1242;23128;-76
2022/01/23 12:38:57;;;;;;;;;18.67;16.67;;;;;21.35;49.24;102390.86;112353;1242;21585;-77
2022/01/23 12:41:23;;;;;;;;;17.00;14.00;;;;;21.33;48.78;102396.27;112321;1242;19151;-77
2022/01/23 12:43:50;;;;;;;;;17.33;16.00;;;;;21.35;48.84;102398.85;112325;1242;19419;-77
2022/01/23 12:46:17;;;;;;;;;19.33;15.33;;;;;21.41;48.70;102404.27;112345;1242;20220;-77
2022/01/23 12:48:44;;;;;;;;;12.67;12.67;;;;;21.44;48.95;102401.88;112319;1242;19332;-77
2022/01/23 12:51:10;;;;;;;;;16.00;15.33;;;;;21.47;48.85;102402.48;112376;1242;22492;-77
2022/01/23 12:53:36;;;;;;;;;14.00;13.67;;;;;21.49;49.17;102403.04;112385;1242;20229;-78
2022/01/23 12:56:02;;;;;;;;;18.67;14.67;;;;;21.51;49.06;102400.30;112039;1243;19249;-77
2022/01/23 12:58:31;;;;;;;;;16.33;14.67;;;;;21.53;49.46;102396.95;112331;1242;19492;-78
2022/01/23 13:00:58;;;;;;;;;16.00;14.00;;;;;21.57;50.21;102395.86;112317;1242;23036;-77
2022/01/23 13:03:25;;;;;;;;;16.67;14.33;;;;;21.59;50.39;102395.56;112320;1242;19962;-75
2022/01/23 13:05:51;;;;;;;;;13.67;13.00;;;;;21.58;50.46;102394.67;112359;1242;23065;-78
2022/01/23 13:08:21;;;;;;;;;17.00;16.00;;;;;21.60;50.51;102393.30;112325;1242;20217;-76
2022/01/23 13:11:08;;;;;;;;;13.33;13.00;;;;;21.62;50.63;102392.91;112355;1242;19325;-76
2022/01/23 13:13:38;;;;;;;;;16.00;14.00;;;;;21.63;50.36;102400.66;112380;1242;19575;-78
2022/01/23 13:16:20;;;;;;;;;14.00;13.00;;;;;21.63;50.14;102402.41;112244;1242;20027;-77
2022/01/23 13:18:52;;;;;;;;;18.67;13.00;;;;;21.63;50.23;102404.11;112266;1242;23564;-78
2022/01/23 13:29:57;;;;;;;;;21.67;16.00;;;;;21.63;49.37;102408.48;112309;1242;19466;-77